createdAt,value
2023-04-18T00:00:06.557Z,100649.41
2023-04-18T00:02:55.716Z,100652.56
2023-04-18T00:05:47.911Z,100653.06
2023-04-18T00:08:36.378Z,100645.09
2023-04-18T00:11:24.808Z,100644.09
2023-04-18T00:14:13.748Z,100645.75
2023-04-18T00:17:03.841Z,100636.75
2023-04-18T00:19:52.925Z,100624.59
2023-04-18T00:22:42.631Z,100622.94
2023-04-18T00:25:31.443Z,100620.44
2023-04-18T00:28:19.907Z,100625.44
2023-04-18T00:31:08.568Z,100633.94
2023-04-18T00:33:58.480Z,100627.44
2023-04-18T00:36:46.988Z,100620.59
2023-04-18T00:39:36.442Z,100628.94
2023-04-18T00:42:25.939Z,100628.44
2023-04-18T00:45:14.395Z,100627.09
2023-04-18T00:48:03.389Z,100615.78
2023-04-18T00:50:54.284Z,100623.59
2023-04-18T00:53:43.099Z,100618.94
2023-04-18T00:56:31.853Z,100623.28
2023-04-18T00:59:20.406Z,100619.59
2023-04-18T01:02:08.959Z,100627.59
2023-04-18T01:04:58.540Z,100579.13
2023-04-18T01:07:48.536Z,100624.13
2023-04-18T01:10:37.322Z,100617.28
2023-04-18T01:13:25.855Z,100615.94
2023-04-18T01:16:14.433Z,100611.44
2023-04-18T01:19:03.772Z,100604.44
2023-04-18T01:21:54.203Z,100598.44
2023-04-18T01:24:44.064Z,100600.72
2023-04-18T01:27:32.547Z,100590.69
2023-04-18T01:30:21.187Z,100590.97
2023-04-18T01:33:09.711Z,100596.50
2023-04-18T01:35:58.221Z,100590.78
2023-04-18T01:38:46.746Z,100592.53
2023-04-18T01:41:36.747Z,100582.88
2023-04-18T01:44:25.235Z,100585.53
2023-04-18T01:47:13.785Z,100575.69
2023-04-18T01:50:02.971Z,100582.06
2023-04-18T01:52:51.445Z,100582.50
2023-04-18T01:55:39.864Z,100586.00
2023-04-18T01:58:29.702Z,100583.81
2023-04-18T02:01:18.262Z,100589.22
2023-04-18T02:04:06.828Z,100585.44
2023-04-18T02:06:55.572Z,100580.00
2023-04-18T02:09:44.131Z,100574.75
2023-04-18T02:12:34.206Z,100581.97
2023-04-18T02:15:24.703Z,100586.13
2023-04-18T02:18:13.256Z,100581.13
2023-04-18T02:21:01.976Z,100578.72
2023-04-18T02:23:50.994Z,100571.31
2023-04-18T02:26:39.517Z,100579.16
2023-04-18T02:29:28.003Z,100584.88
2023-04-18T02:32:17.823Z,100580.88
2023-04-18T02:35:06.870Z,100580.53
2023-04-18T02:37:55.489Z,100575.69
2023-04-18T02:40:43.977Z,100586.38
2023-04-18T02:43:32.401Z,100580.38
2023-04-18T02:46:21.226Z,100586.91
2023-04-18T02:49:11.193Z,100583.69
2023-04-18T02:51:59.693Z,100578.72
2023-04-18T02:54:48.124Z,100580.63
2023-04-18T02:57:36.593Z,100585.88
2023-04-18T03:00:25.465Z,100542.31
2023-04-18T03:03:13.954Z,100588.56
2023-04-18T03:06:03.805Z,100587.41
2023-04-18T03:08:52.279Z,100584.22
2023-04-18T03:11:40.743Z,100549.19
2023-04-18T03:14:29.203Z,100583.22
2023-04-18T03:17:17.756Z,100577.25
2023-04-18T03:20:08.010Z,100582.06
2023-04-18T03:22:57.875Z,100584.41
2023-04-18T03:25:46.334Z,100586.78
2023-04-18T03:28:35.104Z,100588.91
2023-04-18T03:31:23.579Z,100588.72
2023-04-18T03:34:12.749Z,100585.09
2023-04-18T03:37:01.493Z,100588.75
2023-04-18T03:39:51.250Z,100554.19
2023-04-18T03:42:39.789Z,100582.94
2023-04-18T03:45:28.259Z,100581.25
2023-04-18T03:48:16.792Z,100581.63
2023-04-18T03:51:06.899Z,100603.03
2023-04-18T03:53:55.467Z,100583.91
2023-04-18T03:56:45.480Z,100590.53
2023-04-18T03:59:33.966Z,100596.56
2023-04-18T04:02:22.508Z,100588.72
2023-04-18T04:05:11.114Z,100576.75
2023-04-18T04:07:59.656Z,100593.38
2023-04-18T04:10:48.069Z,100594.16
2023-04-18T04:13:37.885Z,100595.19
2023-04-18T04:16:26.452Z,100575.13
2023-04-18T04:19:15.185Z,100595.13
2023-04-18T04:22:03.592Z,100584.13
2023-04-18T04:24:52.123Z,100585.28
2023-04-18T04:27:42.751Z,100593.47
2023-04-18T04:30:33.398Z,100592.97
2023-04-18T04:33:25.107Z,100601.69
2023-04-18T04:36:16.131Z,100622.03
2023-04-18T04:39:05.834Z,100612.53
2023-04-18T04:41:54.425Z,100616.84
2023-04-18T04:44:43.012Z,100614.91
2023-04-18T04:47:32.958Z,100617.88
2023-04-18T04:50:21.668Z,100631.88
2023-04-18T04:53:11.736Z,100624.88
2023-04-18T04:56:00.289Z,100630.03
2023-04-18T04:58:48.730Z,100623.72
2023-04-18T05:01:37.281Z,100623.22
2023-04-18T05:04:27.289Z,100625.53
2023-04-18T05:07:16.084Z,100616.00
2023-04-18T05:10:05.077Z,100620.72
2023-04-18T05:12:53.583Z,100621.38
2023-04-18T05:15:42.088Z,100616.22
2023-04-18T05:18:31.204Z,100626.28
2023-04-18T05:21:21.869Z,100621.63
2023-04-18T05:24:10.626Z,100617.09
2023-04-18T05:26:59.124Z,100620.25
2023-04-18T05:29:49.368Z,100626.28
2023-04-18T05:32:38.986Z,100627.81
2023-04-18T05:35:27.508Z,100620.66
2023-04-18T05:38:17.287Z,100635.47
2023-04-18T05:41:05.851Z,100636.28
2023-04-18T05:44:04.962Z,100643.16
2023-04-18T05:47:05.668Z,100651.16
2023-04-18T05:49:54.115Z,100646.31
2023-04-18T05:52:42.628Z,100638.84
2023-04-18T05:55:32.501Z,100645.94
2023-04-18T05:58:20.977Z,100644.28
2023-04-18T06:01:09.622Z,100641.69
2023-04-18T06:03:58.358Z,100640.59
2023-04-18T06:06:46.969Z,100644.81
2023-04-18T06:09:35.789Z,100637.34
2023-04-18T06:12:25.635Z,100647.47
2023-04-18T06:15:14.164Z,100640.94
2023-04-18T06:18:02.710Z,100648.09
2023-04-18T06:20:51.615Z,100632.69
2023-04-18T06:23:40.123Z,100636.47
2023-04-18T06:26:28.657Z,100641.19
2023-04-18T06:29:18.991Z,100648.34
2023-04-18T06:32:07.604Z,100649.47
2023-04-18T06:34:56.114Z,100646.91
2023-04-18T06:37:44.899Z,100655.88
2023-04-18T06:40:33.361Z,100651.53
2023-04-18T06:43:22.517Z,100658.56
2023-04-18T06:46:12.442Z,100661.22
2023-04-18T06:49:01.063Z,100663.78
2023-04-18T06:51:49.586Z,100660.09
2023-04-18T06:54:38.076Z,100669.75
2023-04-18T06:57:26.681Z,100668.31
2023-04-18T07:00:16.356Z,100670.97
2023-04-18T07:03:11.302Z,100672.41
2023-04-18T07:06:00.317Z,100658.84
2023-04-18T07:08:48.801Z,100667.44
2023-04-18T07:11:37.312Z,100662.56
2023-04-18T07:14:26.290Z,100666.25
2023-04-18T07:17:14.911Z,100665.16
2023-04-18T07:20:05.363Z,100665.63
2023-04-18T07:22:53.902Z,100662.03
2023-04-18T07:25:42.390Z,100669.81
2023-04-18T07:28:32.037Z,100676.66
2023-04-18T07:31:20.529Z,100676.72
2023-04-18T07:34:09.152Z,100671.78
2023-04-18T07:36:59.358Z,100673.03
2023-04-18T07:39:48.545Z,100628.31
2023-04-18T07:42:38.231Z,100668.44
2023-04-18T07:45:27.106Z,100674.53
2023-04-18T07:48:15.626Z,100679.09
2023-04-18T07:51:04.519Z,100658.09
2023-04-18T07:53:54.436Z,100670.84
2023-04-18T07:56:42.887Z,100681.84
2023-04-18T07:59:32.397Z,100686.00
2023-04-18T08:02:21.514Z,100689.88
2023-04-18T08:05:10.854Z,100681.56
2023-04-18T08:07:59.620Z,100687.88
2023-04-18T08:10:49.485Z,100695.78
2023-04-18T08:13:37.930Z,100691.53
2023-04-18T08:16:26.595Z,100692.22
2023-04-18T08:19:15.377Z,100688.69
2023-04-18T08:22:11.102Z,100687.75
2023-04-18T08:25:05.093Z,100694.88
2023-04-18T08:27:55.721Z,100684.00
2023-04-18T08:30:48.613Z,100694.34
2023-04-18T08:33:37.111Z,100688.31
2023-04-18T08:36:25.961Z,100690.53
2023-04-18T08:39:14.822Z,100703.03
2023-04-18T08:42:04.450Z,100698.41
2023-04-18T08:44:54.329Z,100692.00
2023-04-18T08:47:43.191Z,100694.16
2023-04-18T08:50:32.278Z,100708.19
2023-04-18T08:53:21.050Z,100688.78
2023-04-18T08:56:10.501Z,100694.44
2023-04-18T08:59:00.261Z,100702.00
2023-04-18T09:01:56.600Z,100702.66
2023-04-18T09:04:49.157Z,100642.34
2023-04-18T09:07:46.852Z,100671.56
2023-04-18T09:10:36.549Z,100696.47
2023-04-18T09:13:39.486Z,100683.38
2023-04-18T09:16:29.239Z,100683.47
2023-04-18T09:19:19.206Z,100696.03
2023-04-18T09:22:09.846Z,100688.00
2023-04-18T09:24:59.076Z,100686.56
2023-04-18T09:27:47.620Z,100684.06
2023-04-18T09:30:39.523Z,100695.16
2023-04-18T09:33:29.311Z,100694.91
2023-04-18T09:36:20.731Z,100696.53
2023-04-18T09:39:09.339Z,100693.94
2023-04-18T09:42:01.315Z,100693.25
2023-04-18T09:45:00.790Z,100685.91
2023-04-18T09:47:49.308Z,100685.69
2023-04-18T09:50:40.247Z,100685.78
2023-04-18T09:53:31.257Z,100700.88
2023-04-18T09:56:24.698Z,100696.59
2023-04-18T09:59:13.941Z,100693.84
2023-04-18T10:02:04.087Z,100678.38
2023-04-18T10:04:53.459Z,100686.66
2023-04-18T10:07:42.979Z,100704.00
2023-04-18T10:10:33.376Z,100649.47
2023-04-18T10:13:21.993Z,100687.31
2023-04-18T10:16:11.038Z,100695.91
2023-04-18T10:19:23.030Z,100689.56
2023-04-18T10:22:12.780Z,100691.25
2023-04-18T10:25:01.384Z,100685.22
2023-04-18T10:28:01.231Z,100673.88
2023-04-18T10:30:55.099Z,100683.84
2023-04-18T10:34:03.200Z,100675.31
2023-04-18T10:37:05.337Z,100666.94
2023-04-18T10:39:58.365Z,100669.91
2023-04-18T10:43:00.426Z,100675.66
2023-04-18T10:46:27.829Z,100679.81
2023-04-18T10:49:21.961Z,100679.41
2023-04-18T10:52:13.402Z,100669.25
2023-04-18T10:55:17.539Z,100664.91
2023-04-18T10:58:07.432Z,100667.81
2023-04-18T11:00:56.139Z,100654.56
2023-04-18T11:03:44.986Z,100660.38
2023-04-18T11:06:33.541Z,100658.50
2023-04-18T11:09:22.439Z,100652.31
2023-04-18T11:12:12.058Z,100662.88
2023-04-18T11:15:02.644Z,100646.50
2023-04-18T11:17:59.375Z,100654.00
2023-04-18T11:20:49.989Z,100647.41
2023-04-18T11:23:38.558Z,100640.34
2023-04-18T11:26:30.725Z,100638.69
2023-04-18T11:29:19.230Z,100641.56
2023-04-18T11:32:09.817Z,100633.84
2023-04-18T11:34:58.372Z,100636.78
2023-04-18T11:37:46.871Z,100636.63
2023-04-18T11:40:35.595Z,100583.63
2023-04-18T11:43:25.845Z,100627.13
2023-04-18T11:46:14.708Z,100631.44
2023-04-18T11:49:04.730Z,100635.16
2023-04-18T11:51:53.616Z,100636.81
2023-04-18T11:54:43.346Z,100562.25
2023-04-18T11:57:32.935Z,100621.09
2023-04-18T12:00:32.448Z,100640.97
2023-04-18T12:03:22.569Z,100638.09
2023-04-18T12:06:12.580Z,100637.84
2023-04-18T12:09:01.319Z,100641.34
2023-04-18T12:12:00.951Z,100573.22
2023-04-18T12:14:50.865Z,100637.56
2023-04-18T12:17:39.392Z,100635.06
2023-04-18T12:20:36.357Z,100635.06
2023-04-18T12:23:35.322Z,100637.78
2023-04-18T12:26:23.868Z,100630.94
2023-04-18T12:29:12.653Z,100557.69
2023-04-18T12:32:01.566Z,100627.41
2023-04-18T12:34:50.248Z,100633.00
2023-04-18T12:37:38.720Z,100625.13
2023-04-18T12:40:29.528Z,100619.75
2023-04-18T12:43:18.345Z,100622.22
2023-04-18T12:46:07.009Z,100615.53
2023-04-18T12:48:57.116Z,100623.56
2023-04-18T12:51:45.583Z,100622.72
2023-04-18T12:54:36.154Z,100624.75
2023-04-18T12:57:28.633Z,100620.00
2023-04-18T13:00:18.639Z,100611.84
2023-04-18T13:03:12.432Z,100620.69
2023-04-18T13:06:01.709Z,100610.25
2023-04-18T13:08:50.348Z,100611.69
2023-04-18T13:11:38.819Z,100611.91
2023-04-18T13:14:28.751Z,100613.13
2023-04-18T13:17:17.307Z,100603.38
2023-04-18T13:20:07.096Z,100598.50
2023-04-18T13:22:55.703Z,100609.84
2023-04-18T13:25:44.461Z,100601.78
2023-04-18T13:28:33.491Z,100602.41
2023-04-18T13:31:23.340Z,100597.41
2023-04-18T13:34:11.738Z,100545.09
2023-04-18T13:37:00.265Z,100597.00
2023-04-18T13:39:48.826Z,100609.19
2023-04-18T13:42:38.055Z,100612.00
2023-04-18T13:45:26.580Z,100590.56
2023-04-18T13:48:16.589Z,100597.72
2023-04-18T13:51:05.763Z,100603.16
2023-04-18T13:53:54.344Z,100610.91
2023-04-18T13:56:43.304Z,100584.78
2023-04-18T13:59:32.519Z,100591.81
2023-04-18T14:02:21.294Z,100589.06
2023-04-18T14:05:11.558Z,100585.63
2023-04-18T14:08:03.709Z,100584.88
2023-04-18T14:10:52.302Z,100595.63
2023-04-18T14:13:40.801Z,100593.69
2023-04-18T14:16:31.760Z,100592.06
2023-04-18T14:19:20.973Z,100575.94
2023-04-18T14:22:11.049Z,100597.03
2023-04-18T14:24:59.645Z,100593.91
2023-04-18T14:27:48.974Z,100591.78
2023-04-18T14:30:37.690Z,100596.84
2023-04-18T14:33:26.213Z,100597.66
2023-04-18T14:36:16.901Z,100590.94
2023-04-18T14:39:07.021Z,100575.56
2023-04-18T14:41:55.914Z,100606.31
2023-04-18T14:44:44.498Z,100580.88
2023-04-18T14:47:34.571Z,100547.31
2023-04-18T14:50:23.368Z,100591.06
2023-04-18T14:53:13.859Z,100591.88
2023-04-18T14:56:03.751Z,100586.38
2023-04-18T14:58:52.238Z,100586.38
2023-04-18T15:01:41.477Z,100590.91
2023-04-18T15:04:30.076Z,100593.97
2023-04-18T15:07:18.768Z,100593.16
2023-04-18T15:10:08.620Z,100581.28
2023-04-18T15:12:58.527Z,100591.38
2023-04-18T15:15:52.512Z,100588.97
2023-04-18T15:18:41.036Z,100582.19
2023-04-18T15:21:29.593Z,100594.59
2023-04-18T15:24:18.187Z,100593.06
2023-04-18T15:27:07.706Z,100571.31
2023-04-18T15:29:57.593Z,100584.63
2023-04-18T15:32:46.103Z,100589.19
2023-04-18T15:35:34.662Z,100604.19
2023-04-18T15:38:23.186Z,100594.94
2023-04-18T15:41:11.686Z,100588.88
2023-04-18T15:44:00.258Z,100586.16
2023-04-18T15:46:50.923Z,100575.56
2023-04-18T15:49:39.391Z,100590.03
2023-04-18T15:52:27.929Z,100594.72
2023-04-18T15:55:16.473Z,100587.75
2023-04-18T15:58:05.018Z,100578.19
2023-04-18T16:00:53.514Z,100586.28
2023-04-18T16:03:43.540Z,100589.59
2023-04-18T16:06:32.237Z,100591.06
2023-04-18T16:09:20.729Z,100591.88
2023-04-18T16:12:09.260Z,100589.38
2023-04-18T16:14:57.782Z,100593.56
2023-04-18T16:17:46.803Z,100599.31
2023-04-18T16:20:36.746Z,100589.88
2023-04-18T16:23:26.145Z,100595.84
2023-04-18T16:26:14.651Z,100597.38
2023-04-18T16:29:03.150Z,100608.63
2023-04-18T16:31:52.475Z,100577.97
2023-04-18T16:34:41.098Z,100600.38
2023-04-18T16:37:31.002Z,100594.56
2023-04-18T16:40:19.518Z,100599.53
2023-04-18T16:43:07.977Z,100598.94
2023-04-18T16:45:57.607Z,100602.25
2023-04-18T16:48:46.191Z,100605.84
2023-04-18T16:51:36.184Z,100609.50
2023-04-18T16:54:26.163Z,100593.16
2023-04-18T16:57:14.828Z,100598.59
2023-04-18T17:00:05.034Z,100600.25
2023-04-18T17:02:55.658Z,100606.00
2023-04-18T17:05:44.571Z,100607.56
2023-04-18T17:08:33.737Z,100601.47
2023-04-18T17:11:23.559Z,100611.72
2023-04-18T17:14:12.372Z,100615.88
2023-04-18T17:17:00.913Z,100616.09
2023-04-18T17:19:49.411Z,100614.50
2023-04-18T17:22:38.021Z,100612.00
2023-04-18T17:25:26.588Z,100614.09
2023-04-18T17:28:16.578Z,100610.84
2023-04-18T17:31:05.611Z,100614.97
2023-04-18T17:33:54.551Z,100623.28
2023-04-18T17:36:43.130Z,100628.97
2023-04-18T17:39:32.287Z,100628.34
2023-04-18T17:42:21.206Z,100629.28
2023-04-18T17:45:11.390Z,100632.72
2023-04-18T17:48:02.158Z,100640.81
2023-04-18T17:50:50.728Z,100640.63
2023-04-18T17:53:39.246Z,100601.47
2023-04-18T17:56:28.143Z,100660.38
2023-04-18T17:59:16.977Z,100649.84
2023-04-18T18:02:06.917Z,100657.13
2023-04-18T18:04:56.286Z,100654.19
2023-04-18T18:07:50.303Z,100662.13
2023-04-18T18:10:39.535Z,100665.88
2023-04-18T18:13:27.995Z,100669.03
2023-04-18T18:16:16.520Z,100656.81
2023-04-18T18:19:07.366Z,100670.34
2023-04-18T18:21:56.018Z,100675.72
2023-04-18T18:24:44.560Z,100660.22
2023-04-18T18:27:33.676Z,100641.56
2023-04-18T18:30:22.239Z,100670.16
2023-04-18T18:33:10.835Z,100662.28
2023-04-18T18:36:01.327Z,100659.81
2023-04-18T18:38:49.857Z,100678.84
2023-04-18T18:41:38.475Z,100659.59
2023-04-18T18:44:27.208Z,100682.19
2023-04-18T18:47:15.654Z,100692.53
2023-04-18T18:50:04.414Z,100689.25
2023-04-18T18:52:54.245Z,100698.59
2023-04-18T18:55:42.757Z,100701.28
2023-04-18T18:58:31.293Z,100699.00
2023-04-18T19:01:20.542Z,100699.41
2023-04-18T19:04:09.267Z,100702.72
2023-04-18T19:06:57.966Z,100704.16
2023-04-18T19:09:47.877Z,100712.66
2023-04-18T19:12:36.359Z,100710.16
2023-04-18T19:15:25.007Z,100679.47
2023-04-18T19:18:13.736Z,100715.97
2023-04-18T19:21:02.261Z,100721.13
2023-04-18T19:23:50.817Z,100714.50
2023-04-18T19:26:40.710Z,100713.91
2023-04-18T19:29:31.913Z,100721.50
2023-04-18T19:32:21.822Z,100724.22
2023-04-18T19:35:13.146Z,100731.84
2023-04-18T19:38:02.341Z,100733.72
2023-04-18T19:40:50.892Z,100723.34
2023-04-18T19:43:42.482Z,100727.50
2023-04-18T19:46:31.141Z,100728.94
2023-04-18T19:49:19.727Z,100728.72
2023-04-18T19:52:08.196Z,100727.25
2023-04-18T19:54:56.656Z,100726.88
2023-04-18T19:57:45.148Z,100733.47
2023-04-18T20:00:35.172Z,100729.13
2023-04-18T20:03:23.770Z,100733.22
2023-04-18T20:06:12.355Z,100739.19
2023-04-18T20:09:01.350Z,100755.59
2023-04-18T20:11:49.894Z,100746.66
2023-04-18T20:14:38.353Z,100749.34
2023-04-18T20:17:30.505Z,100744.78
2023-04-18T20:20:19.109Z,100743.94
2023-04-18T20:23:07.737Z,100744.53
2023-04-18T20:25:59.355Z,100748.25
2023-04-18T20:28:47.870Z,100757.38
2023-04-18T20:31:41.683Z,100748.22
2023-04-18T20:34:32.132Z,100714.59
2023-04-18T20:37:20.706Z,100755.50
2023-04-18T20:40:11.248Z,100749.25
2023-04-18T20:43:03.068Z,100753.94
2023-04-18T20:45:51.855Z,100752.56
2023-04-18T20:48:40.489Z,100738.25
2023-04-18T20:51:31.768Z,100746.50
2023-04-18T20:54:20.245Z,100755.81
2023-04-18T20:57:09.105Z,100758.06
2023-04-18T20:59:58.663Z,100758.53
2023-04-18T21:02:47.292Z,100755.44
2023-04-18T21:05:35.912Z,100755.38
2023-04-18T21:08:25.746Z,100757.63
2023-04-18T21:11:14.221Z,100759.72
2023-04-18T21:14:03.754Z,100766.50
2023-04-18T21:16:52.201Z,100764.81
2023-04-18T21:19:40.765Z,100768.53
2023-04-18T21:22:29.285Z,100767.50
2023-04-18T21:25:21.142Z,100770.19
2023-04-18T21:28:09.664Z,100767.22
2023-04-18T21:30:58.129Z,100760.59
2023-04-18T21:33:46.655Z,100768.69
2023-04-18T21:36:35.224Z,100765.81
2023-04-18T21:39:23.696Z,100764.00
2023-04-18T21:42:13.507Z,100767.91
2023-04-18T21:45:02.155Z,100780.66
2023-04-18T21:47:50.832Z,100765.00
2023-04-18T21:50:39.301Z,100776.91
2023-04-18T21:53:27.839Z,100771.53
2023-04-18T21:56:16.992Z,100775.50
2023-04-18T21:59:06.880Z,100771.97
2023-04-18T22:01:55.484Z,100767.19
2023-04-18T22:04:44.149Z,100762.44
2023-04-18T22:07:33.327Z,100770.41
2023-04-18T22:10:22.920Z,100765.63
2023-04-18T22:13:11.477Z,100767.16
2023-04-18T22:16:03.552Z,100759.19
2023-04-18T22:18:52.173Z,100762.56
2023-04-18T22:21:40.667Z,100764.00
2023-04-18T22:24:29.120Z,100760.50
2023-04-18T22:27:17.600Z,100757.56
2023-04-18T22:30:07.197Z,100746.22
2023-04-18T22:32:57.170Z,100752.38
2023-04-18T22:35:45.875Z,100759.09
2023-04-18T22:38:34.372Z,100757.69
2023-04-18T22:41:22.869Z,100765.41
2023-04-18T22:44:11.344Z,100761.22
2023-04-18T22:46:59.803Z,100756.22
2023-04-18T22:49:49.763Z,100759.09
2023-04-18T22:52:38.192Z,100761.16
2023-04-18T22:55:26.665Z,100761.16
2023-04-18T22:58:15.278Z,100764.81
2023-04-18T23:01:03.893Z,100760.88
2023-04-18T23:03:52.470Z,100760.44
2023-04-18T23:06:42.392Z,100767.00
2023-04-18T23:09:31.837Z,100759.19
2023-04-18T23:12:20.959Z,100755.69
2023-04-18T23:15:09.953Z,100764.75
2023-04-18T23:17:58.453Z,100770.66
2023-04-18T23:20:47.023Z,100771.22
2023-04-18T23:23:36.851Z,100777.50
2023-04-18T23:26:25.447Z,100764.06
2023-04-18T23:29:13.960Z,100762.59
2023-04-18T23:32:02.408Z,100764.41
2023-04-18T23:34:51.208Z,100748.69
2023-04-18T23:37:39.738Z,100757.22
2023-04-18T23:40:29.566Z,100765.41
2023-04-18T23:43:17.986Z,100759.84
2023-04-18T23:46:06.649Z,100761.53
2023-04-18T23:48:55.176Z,100608.72
2023-04-18T23:51:43.694Z,100764.31
2023-04-18T23:54:32.174Z,100755.13
2023-04-18T23:57:22.095Z,100746.88
